Fraziers Bottom, WV

4:19 PM EDT on September 22, 2014 (GMT -0400)
Pebble Creek | Change Station
CLOSE
Current Station
Personal Weather Station
Location: Fraziers Bottom, WV
Elevation: 560 ft
Nearby Weather Stations

Elev 560 ft 38.56 °N, 81.99 °W | Updated 8 minutes ago

Mostly Cloudy
Mostly Cloudy
66.2 °F
Feels Like 66.2 °F
N
0.0
Wind Variable Wind from NW
Gusts 2.0 mph

Today
High -- | Low -- °F
--% Chance of Precip.
Yesterday
High -- | Low -- °F
Precip. -- in
7:15 AM 7:25 PM
Waning Crescent, 2% visible
Pressure 30.18 in
Visibility 10.0 miles
Clouds Scattered Clouds 5000 ft
Dew Point 50 °F
Humidity 56%
Rainfall 0.00 in
Snow Depth Not available.
UV 4 out of 12
Pollen 3.30 out of 12
Air Quality Not available.
Flu Activity Not available.
METAR K3I2 221955Z AUTO 31003KT 10SM SCT050 22/06 A3018 RMK AO2

More Conditions Fewer Conditions

Pressure 30.18 in
Visibility 10.0 miles
Clouds Scattered Clouds 5000 ft
Dew Point 50 °F
Humidity 56%
Rainfall 0.00 in
Snow Depth Not available.
UV 4 out of 12
Pollen 3.30 out of 12
Air Quality Not available.
Flu Activity Not available.
METAR K3I2 221955Z AUTO 31003KT 10SM SCT050 22/06 A3018 RMK AO2

More Conditions Fewer Conditions

10-Day Weather Forecast

Almanac

Astronomy

Sep. 22, 2014 Rise Set
Actual Time 7:15 AM EDT 7:25 PM EDT
Civil Twilight 6:49 AM EDT 7:51 PM EDT
Nautical Twilight 6:18 AM EDT 8:22 PM EDT
Astronomical Twilight 5:46 AM EDT 8:53 PM EDT
Moon 5:44 AM EDT 6:31 PM EDT
Length of Visible Light 13h 02m
Length of Day
12h 09m
Tomorrow will be 2m 30s shorter.
Waning Crescent, 2% of the Moon is Illuminated
Today
Waning Crescent
Sep 24
New
Oct 1
First Quarter
Oct 8
Full
Oct 15
Last Quarter

Today's Extremes

State Highs State Lows

Community

WunderPhotos

Upload Photos

1,755,519 photos uploaded!

WunderBlogs® & News

Nearby

Snow Depth

Station Depth Elevation
No new snow has been reported.

Earthquake Activity

City Distance Mag. Time & Date
No recent earthquake activity has been reported nearby.
Minimum magnitude displayed is 2.5.

Coastal Water Temperatures

Place Temperature
No Stations Reporting

Nearby Weather Stations